San Antonio, Texas
Current Conditions -  °F | °C
As of 2:58 PM on Sunday 23 Nov 2014 (Local Time) from KSKF Reporting Station
Clear Clear  
Wind Chill: 27°   Ceiling: Unl
Heat Index: 27°   Visibility: 10mi
Dew Point:   Wind: 15mph
Humidity: 27%   Direction: 230°SW
Pressure: 29.56"   Gusts: 23mph
Location:  29.42°N, 98.49°W
Report Text: KSKF 232058Z AUTO 23013G20KT 10SM CLR 27/07 A2956 RMK AO2 SLP005 T02690066 57029 $
Loading
Personal Weather Stations






























Interactive Weather Map New forecast layout! Learn more

10-Day Weather Forecast

Advertisements
Track Severe Weather on mobile